createdAt,value
2023-01-17T00:04:20.648Z,17.89
2023-01-17T00:09:41.009Z,17.78
2023-01-17T00:14:45.220Z,17.63
2023-01-17T00:20:05.636Z,17.54
2023-01-17T00:25:29.448Z,17.39
2023-01-17T00:30:32.565Z,17.28
2023-01-17T00:35:34.680Z,17.19
2023-01-17T00:40:38.188Z,17.13
2023-01-17T00:46:01.364Z,16.96
2023-01-17T00:51:21.694Z,16.90
2023-01-17T00:56:42.235Z,16.77
2023-01-17T01:02:04.031Z,16.67
2023-01-17T01:07:24.442Z,16.56
2023-01-17T01:12:44.814Z,16.49
2023-01-17T01:18:06.428Z,16.37
2023-01-17T01:23:26.541Z,16.31
2023-01-17T01:28:46.901Z,16.23
2023-01-17T01:33:51.676Z,16.15
2023-01-17T01:39:02.877Z,16.10
2023-01-17T01:44:06.110Z,16.01
2023-01-17T01:49:37.014Z,15.96
2023-01-17T01:54:53.551Z,15.88
2023-01-17T02:00:03.783Z,15.80
2023-01-17T02:05:18.091Z,15.75
2023-01-17T02:10:20.948Z,15.68
2023-01-17T02:21:22.909Z,15.57
2023-01-17T02:27:04.473Z,15.50
2023-01-17T02:32:11.639Z,15.44
2023-01-17T02:37:49.104Z,15.38
2023-01-17T02:42:57.063Z,15.31
2023-01-17T02:48:03.744Z,15.29
2023-01-17T02:53:15.795Z,15.23
2023-01-17T02:59:09.518Z,15.18
2023-01-17T03:04:15.662Z,15.13
2023-01-17T03:09:19.026Z,15.07
2023-01-17T03:14:21.719Z,15.04
2023-01-17T03:19:25.884Z,14.99
2023-01-17T03:24:28.665Z,14.95
2023-01-17T03:29:31.368Z,14.92
2023-01-17T03:34:35.515Z,14.85
2023-01-17T03:39:38.163Z,14.81
2023-01-17T03:44:40.862Z,14.78
2023-01-17T03:49:44.969Z,14.75
2023-01-17T03:54:48.533Z,14.69
2023-01-17T03:59:51.370Z,14.65
2023-01-17T04:04:55.567Z,14.62
2023-01-17T04:09:58.296Z,14.59
2023-01-17T04:15:01.061Z,14.53
2023-01-17T04:20:06.115Z,14.50
2023-01-17T04:25:09.717Z,14.48
2023-01-17T04:30:13.378Z,14.42
2023-01-17T04:35:17.712Z,14.40
2023-01-17T04:40:20.726Z,14.35
2023-01-17T04:45:23.482Z,14.31
2023-01-17T04:50:27.789Z,14.33
2023-01-17T04:55:30.461Z,14.29
2023-01-17T05:00:33.206Z,14.22
2023-01-17T05:05:37.268Z,14.20
2023-01-17T05:10:40.042Z,14.15
2023-01-17T05:15:42.995Z,14.11
2023-01-17T05:20:47.055Z,14.06
2023-01-17T05:25:49.773Z,14.05
2023-01-17T05:30:53.128Z,14.00
2023-01-17T05:35:57.226Z,13.96
2023-01-17T05:41:00.566Z,13.94
2023-01-17T05:46:03.270Z,13.92
2023-01-17T05:51:07.905Z,13.86
2023-01-17T05:56:10.583Z,13.84
2023-01-17T06:01:13.451Z,13.84
2023-01-17T06:06:17.860Z,13.79
2023-01-17T06:11:20.665Z,13.76
2023-01-17T06:16:23.419Z,13.72
2023-01-17T06:21:27.531Z,13.70
2023-01-17T06:26:30.254Z,13.69
2023-01-17T06:31:33.085Z,13.66
2023-01-17T06:36:37.274Z,13.63
2023-01-17T06:41:39.979Z,13.61
2023-01-17T06:46:43.394Z,13.59
2023-01-17T06:51:47.489Z,13.58
2023-01-17T06:56:50.145Z,13.88
2023-01-17T07:01:52.920Z,14.38
2023-01-17T07:06:56.978Z,14.83
2023-01-17T07:12:01.937Z,15.22
2023-01-17T07:17:05.385Z,15.60
2023-01-17T07:22:11.138Z,15.85
2023-01-17T07:27:13.829Z,16.03
2023-01-17T07:32:16.519Z,16.16
2023-01-17T07:37:20.940Z,16.23
2023-01-17T07:42:24.415Z,16.26
2023-01-17T07:47:27.183Z,16.22
2023-01-17T07:52:31.236Z,16.20
2023-01-17T07:57:33.915Z,16.15
2023-01-17T08:02:36.560Z,16.18
2023-01-17T08:07:40.669Z,16.12
2023-01-17T08:12:43.311Z,16.10
2023-01-17T08:17:47.434Z,16.00
2023-01-17T08:22:53.617Z,15.90
2023-01-17T08:27:58.274Z,15.82
2023-01-17T08:33:01.599Z,15.77
2023-01-17T08:38:05.989Z,15.72
2023-01-17T08:43:09.613Z,15.63
2023-01-17T08:48:12.478Z,15.60
2023-01-17T08:53:18.033Z,15.56
2023-01-17T08:58:20.721Z,15.57
2023-01-17T09:03:23.449Z,15.75
2023-01-17T09:08:27.549Z,16.11
2023-01-17T09:13:30.248Z,16.49
2023-01-17T09:18:33.909Z,16.81
2023-01-17T09:23:38.047Z,17.15
2023-01-17T09:28:42.637Z,17.39
2023-01-17T09:33:45.414Z,17.57
2023-01-17T09:38:50.317Z,17.74
2023-01-17T09:44:00.975Z,17.98
2023-01-17T09:49:09.063Z,18.02
2023-01-17T09:54:21.372Z,18.05
2023-01-17T09:59:35.610Z,18.02
2023-01-17T10:04:51.860Z,18.07
2023-01-17T10:10:06.179Z,17.91
2023-01-17T10:15:24.131Z,17.68
2023-01-17T10:20:42.103Z,17.81
2023-01-17T10:25:49.602Z,17.76
2023-01-17T10:30:53.586Z,17.75
2023-01-17T10:35:58.352Z,17.83
2023-01-17T10:41:06.956Z,17.95
2023-01-17T10:46:16.009Z,17.94
2023-01-17T10:51:43.069Z,18.03
2023-01-17T10:56:47.179Z,18.04
2023-01-17T11:01:51.275Z,17.93
2023-01-17T11:07:12.672Z,18.04
2023-01-17T11:12:29.381Z,18.22
2023-01-17T11:17:32.556Z,18.27
2023-01-17T11:22:36.125Z,18.26
2023-01-17T11:27:41.839Z,18.20
2023-01-17T11:32:52.995Z,18.09
2023-01-17T11:38:04.568Z,17.94
2023-01-17T11:43:22.359Z,17.94
2023-01-17T11:48:25.004Z,18.00
2023-01-17T11:53:30.406Z,18.17
2023-01-17T11:58:36.339Z,18.22
2023-01-17T12:04:00.102Z,18.19
2023-01-17T12:09:12.093Z,18.21
2023-01-17T12:14:23.615Z,18.11
2023-01-17T12:19:34.565Z,18.19
2023-01-17T12:24:48.999Z,18.18
2023-01-17T12:30:09.372Z,18.20
2023-01-17T12:35:15.341Z,18.23
2023-01-17T12:40:23.866Z,18.28
2023-01-17T12:45:31.997Z,18.35
2023-01-17T12:50:38.363Z,18.30
2023-01-17T12:56:11.953Z,18.32
2023-01-17T13:01:24.400Z,18.21
2023-01-17T13:06:32.858Z,18.16
2023-01-17T13:11:57.281Z,18.00
2023-01-17T13:17:18.728Z,18.05
2023-01-17T13:22:24.031Z,18.14
2023-01-17T13:27:36.487Z,18.07
2023-01-17T13:33:01.531Z,17.89
2023-01-17T13:38:40.113Z,17.84
2023-01-17T13:44:04.975Z,17.84
2023-01-17T13:49:34.868Z,17.96
2023-01-17T13:54:48.612Z,17.96
2023-01-17T14:00:38.852Z,17.97
2023-01-17T14:05:50.038Z,17.87
2023-01-17T14:11:28.692Z,17.79
2023-01-17T14:16:32.155Z,17.81
2023-01-17T14:21:37.454Z,17.72
2023-01-17T14:26:54.209Z,17.91
2023-01-17T14:32:01.799Z,18.02
2023-01-17T14:37:10.545Z,18.06
2023-01-17T14:42:14.962Z,18.09
2023-01-17T14:47:17.932Z,18.05
2023-01-17T14:52:23.754Z,17.99
2023-01-17T14:57:29.123Z,17.90
2023-01-17T15:02:32.443Z,17.86
2023-01-17T15:07:37.925Z,17.86
2023-01-17T15:12:41.014Z,18.07
2023-01-17T15:17:43.740Z,18.19
2023-01-17T15:22:47.806Z,18.22
2023-01-17T15:27:50.613Z,18.14
2023-01-17T15:32:53.439Z,18.15
2023-01-17T15:37:58.187Z,18.06
2023-01-17T15:43:01.918Z,17.93
2023-01-17T15:48:29.864Z,17.95
2023-01-17T15:53:35.974Z,17.91
2023-01-17T15:58:38.726Z,17.92
2023-01-17T16:03:41.469Z,17.95
2023-01-17T16:08:53.062Z,17.97
2023-01-17T16:13:55.790Z,17.85
2023-01-17T16:19:02.895Z,17.78
2023-01-17T16:24:10.982Z,17.77
2023-01-17T16:29:13.848Z,17.68
2023-01-17T16:34:16.842Z,17.64
2023-01-17T16:39:20.936Z,17.63
2023-01-17T16:44:23.722Z,17.77
2023-01-17T16:49:26.735Z,17.82
2023-01-17T16:54:30.894Z,17.83
2023-01-17T16:59:50.614Z,17.84
2023-01-17T17:05:02.121Z,17.74
2023-01-17T17:10:07.185Z,17.61
2023-01-17T17:15:10.681Z,17.57
2023-01-17T17:20:15.701Z,17.58
2023-01-17T17:25:20.061Z,17.52
2023-01-17T17:30:22.742Z,17.70
2023-01-17T17:35:25.480Z,17.74
2023-01-17T17:40:29.554Z,17.72
2023-01-17T17:45:33.352Z,17.75
2023-01-17T17:50:36.040Z,17.66
2023-01-17T17:55:42.784Z,17.56
2023-01-17T18:00:45.474Z,17.53
2023-01-17T18:05:48.255Z,17.56
2023-01-17T18:10:52.349Z,17.44
2023-01-17T18:16:05.491Z,17.42
2023-01-17T18:21:10.094Z,17.65
2023-01-17T18:26:18.493Z,17.68
2023-01-17T18:31:21.590Z,17.68
2023-01-17T18:36:25.289Z,17.66
2023-01-17T18:41:30.879Z,17.56
2023-01-17T18:46:34.140Z,17.48
2023-01-17T18:51:36.849Z,17.45
2023-01-17T18:56:42.301Z,17.42
2023-01-17T19:01:45.095Z,17.36
2023-01-17T19:06:48.735Z,17.52
2023-01-17T19:11:52.926Z,17.49
2023-01-17T19:16:56.143Z,17.50
2023-01-17T19:21:58.820Z,17.51
2023-01-17T19:27:03.647Z,17.55
2023-01-17T19:32:07.350Z,17.51
2023-01-17T19:37:10.037Z,17.63
2023-01-17T19:42:15.653Z,17.99
2023-01-17T19:47:18.453Z,18.25
2023-01-17T19:52:22.187Z,18.54
2023-01-17T19:57:28.939Z,18.67
2023-01-17T20:02:31.695Z,19.05
2023-01-17T20:07:34.684Z,19.19
2023-01-17T20:12:38.952Z,19.29
2023-01-17T20:17:41.626Z,19.31
2023-01-17T20:22:44.575Z,19.40
2023-01-17T20:27:48.832Z,19.24
2023-01-17T20:32:52.200Z,19.18
2023-01-17T20:37:55.233Z,19.12
2023-01-17T20:42:59.512Z,19.31
2023-01-17T20:48:02.266Z,19.50
2023-01-17T20:53:05.262Z,19.72
2023-01-17T20:58:09.300Z,19.87
2023-01-17T21:08:43.102Z,19.41
2023-01-17T21:13:48.580Z,19.30
2023-01-17T21:18:52.493Z,19.35
2023-01-17T21:23:57.298Z,19.42
2023-01-17T21:29:01.906Z,19.30
2023-01-17T21:34:06.481Z,19.46
2023-01-17T21:39:12.261Z,19.59
2023-01-17T21:44:19.642Z,19.39
2023-01-17T21:49:26.098Z,19.40
2023-01-17T21:54:48.124Z,19.29
2023-01-17T21:59:52.533Z,19.49
2023-01-17T22:04:56.288Z,19.45
2023-01-17T22:09:59.061Z,19.46
2023-01-17T22:15:04.086Z,19.42
2023-01-17T22:20:11.476Z,19.44
2023-01-17T22:25:21.280Z,19.48
2023-01-17T22:30:25.428Z,19.48
2023-01-17T22:35:28.203Z,19.43
2023-01-17T22:40:32.574Z,19.43
2023-01-17T22:45:36.786Z,19.44
2023-01-17T22:50:39.511Z,19.45
2023-01-17T22:55:42.243Z,19.59
2023-01-17T23:00:47.382Z,19.52
2023-01-17T23:05:50.147Z,19.48
2023-01-17T23:11:10.225Z,19.55
2023-01-17T23:16:31.702Z,19.40
2023-01-17T23:21:48.368Z,19.33
2023-01-17T23:27:05.103Z,19.18
2023-01-17T23:32:09.138Z,19.02
2023-01-17T23:37:11.908Z,18.92
2023-01-17T23:42:32.124Z,18.85
2023-01-17T23:47:36.209Z,18.71
2023-01-17T23:52:38.883Z,18.59
2023-01-17T23:57:41.591Z,18.49
